ADDS METAR Data INFO
IDs: Format: Raw Decoded Include TAF

Data at: 1945 UTC 17 Feb 2018

KSFB 171853Z 25010G16KT 10SM CLR 28/14 A3014 RMK AO2 SLP205 T02780139
KSFB 171753Z 19006KT 10SM FEW032 SCT039 26/16 A3017 RMK AO2 SLP215 T02610156 10261 20167 58020
KSFB 171653Z 36005KT 10SM SCT017 23/18 A3021 RMK AO2 SLP227 T02280183
KSFB 171553Z 00000KT 10SM SCT015 23/18 A3023 RMK AO2 SLP235 T02280183
KSFB 171551Z 21003KT 10SM SCT015 23/18 A3023 RMK AO2
KSFB 171453Z 24003KT 10SM BKN004 OVC015 19/18 A3022 RMK AO2 SLP233 T01890178 51012
KSFB 171432Z 24003KT 6SM BR BKN002 OVC015 18/18 A3022 RMK AO2 T01780178
KSFB 171422Z 22003KT 2 1/2SM BR OVC002 18/18 A3022 RMK AO2 VIS 1 3/4V5 T01780178
KSFB 171414Z 22003KT 1 1/2SM BR OVC002 18/18 A3022 RMK AO2 T01780178
KSFB 171353Z 00000KT 1/2SM FG VV002 17/17 A3022 RMK AO2 SLP233 T01720167
KSFB 171344Z 00000KT 1/4SM FG VV002 17/17 A3022 RMK AO2 T01720172
KSFB 171311Z 27003KT 1/2SM FG VV002 17/17 A3022 RMK AO2 T01720172
KSFB 171253Z 28003KT M1/4SM FG VV002 17/17 A3021 RMK AO2 SLP228 T01720167
KSFB 171153Z 30003KT 1/4SM FG VV002 17/17 A3019 RMK AO2 SLP222 T01670167 10189 20150 53012
KSFB 171128Z 29004KT 1/4SM FG VV002 17/16 A3018 RMK AO2 T01670161
KSFB 171117Z 34003KT 1 1/2SM BR OVC003 15/14 A3018 RMK AO2 VIS 3/4V5 T01500144
KSFB 171053Z AUTO 00000KT 3/4SM BR VV004 16/15 A3017 RMK AO2 SLP215 T01560150
KSFB 171048Z AUTO 00000KT 3/4SM BR CLR 16/15 A3017 RMK AO2
KSFB 171038Z AUTO 00000KT 1 1/2SM BR CLR 15/14 A3017 RMK AO2 T01500144
KSFB 171016Z AUTO 00000KT 3SM BR CLR 16/15 A3016 RMK AO2 T01560150
KSFB 171005Z AUTO 00000KT 1 3/4SM BR CLR 16/15 A3016 RMK AO2 VIS 1/2V5 T01560150
KSFB 170953Z AUTO 29003KT 7SM CLR 16/16 A3015 RMK AO2 SLP210 T01610156
KSFB 170853Z AUTO 23003KT 10SM CLR 17/16 A3015 RMK AO2 SLP207 T01670156 56008
KSFB 170753Z AUTO 00000KT 10SM CLR 17/16 A3015 RMK AO2 SLP210 T01720156
KSFB 170653Z AUTO 00000KT 10SM CLR 18/16 A3016 RMK AO2 SLP211 T01780156
KSFB 170553Z AUTO 24003KT 10SM CLR 18/16 A3017 RMK AO2 SLP216 T01830161 10233 20178 58001
KSFB 170453Z AUTO 28006KT 10SM CLR 19/16 A3018 RMK AO2 SLP218 T01890156 402830161
KSFB 170353Z AUTO 28007KT 10SM CLR 19/14 A3018 RMK AO2 SLP219 T01940144
KSFB 170253Z 27007KT 10SM CLR 21/13 A3018 RMK AO2 SLP217 T02060133 51008
KSFB 170153Z 26006KT 10SM CLR 22/13 A3017 RMK AO2 SLP216 T02170133
KSFB 170053Z 26005KT 10SM CLR 23/14 A3016 RMK AO2 SLP212 T02280139
KSFB 162353Z 29006KT 10SM CLR 23/14 A3015 RMK AO2 SLP209 T02330139 10283 20233 53009
KSFB 162253Z 29011KT 10SM CLR 26/14 A3014 RMK AO2 SLP204 T02610139
KSFB 162153Z 26009KT 10SM FEW044 27/16 A3012 RMK AO2 SLP199 T02720161
KSFB 162053Z 26010KT 10SM CLR 28/16 A3012 RMK AO2 SLP200 T02780161 56014
KSFB 161953Z 27010KT 10SM SCT043 BKN049 27/17 A3013 RMK AO2 PK WND 26027/1938 SLP202 T02720167
KSFB 161853Z 29009KT 10SM FEW041 27/17 A3014 RMK AO2 SLP206 T02720167
KSFB 161753Z 29011KT 10SM CLR 27/17 A3017 RMK AO2 SLP214 T02720167 10272 20172 58020
KSFB 161653Z 27005KT 10SM CLR 26/17 A3020 RMK AO2 SLP225 T02610172
KSFB 161553Z 28006KT 10SM CLR 24/18 A3022 RMK AO2 SLP231 T02440178
KSFB 161453Z 26007KT 10SM CLR 23/17 A3022 RMK AO2 SLP233 T02280172 51013
KSFB 161353Z 22004KT 10SM CLR 21/18 A3022 RMK AO2 SLP230 T02060178
KSFB 161253Z 24004KT 9SM CLR 18/17 A3020 RMK AO2 SLP225 T01780167
KSFB 161153Z 21005KT 10SM CLR 18/16 A3019 RMK AO2 SLP221 T01780161 10200 20161 53001
KSFB 161053Z AUTO 24004KT 10SM CLR 17/16 A3018 RMK AO2 SLP219 T01720156
KSFB 160953Z AUTO 00000KT 10SM CLR 18/16 A3018 RMK AO2 SLP218 T01780161
KSFB 160853Z AUTO 00000KT 10SM CLR 17/16 A3018 RMK AO2 SLP219 T01720161 58014
KSFB 160753Z AUTO 00000KT 10SM CLR 18/17 A3020 RMK AO2 SLP225 T01780167